Time;durP1;ratioP1;P1;durP2;ratioP2;P2;SDS_P1;SDS_P2;PMS_P1;PMS_P2;Temp;Humidity;BMP_temperature;BMP_pressure;BME280_temperature;BME280_humidity;BME280_pressure;Samples;Min_cycle;Max_cycle;Signal;HPM_P1;HPM_P2
2024/01/01 00:00:47;;;;;;;3.10;0.95;;;;;;;3.14;69.24;90922.66;5033250;28;20069;-51
2024/01/01 00:03:13;;;;;;;3.70;1.05;;;;;;;3.12;69.21;90928.22;5023924;28;20034;-52
2024/01/01 00:05:38;;;;;;;2.13;0.98;;;;;;;3.12;69.98;90927.44;5017317;28;20485;-51
2024/01/01 00:08:04;;;;;;;2.55;1.20;;;;;;;3.05;69.44;90928.06;5033350;28;20041;-51
2024/01/01 00:10:29;;;;;;;2.30;1.08;;;;;;;3.10;69.89;90927.81;5021051;28;20696;-52
2024/01/01 00:12:55;;;;;;;2.00;0.85;;;;;;;3.12;70.24;90930.81;5017333;28;20029;-51
2024/01/01 00:15:21;;;;;;;2.50;0.90;;;;;;;3.13;70.44;90929.75;5024333;28;20037;-51
2024/01/01 00:17:46;;;;;;;1.75;0.98;;;;;;;3.06;69.88;90929.56;5021951;28;20073;-51
2024/01/01 00:20:12;;;;;;;4.53;1.13;;;;;;;3.03;70.05;90927.63;5021606;28;20479;-51
2024/01/01 00:22:37;;;;;;;2.08;1.02;;;;;;;3.02;69.90;90930.59;5026982;28;20087;-52
2024/01/01 00:25:04;;;;;;;3.42;1.40;;;;;;;3.01;69.79;90929.06;5021529;28;20400;-51
2024/01/01 00:27:33;;;;;;;3.35;1.33;;;;;;;3.04;70.01;90934.38;5019255;28;20026;-51
2024/01/01 00:30:00;;;;;;;5.68;1.50;;;;;;;2.96;70.22;90928.22;5032820;28;20069;-52
2024/01/01 00:32:25;;;;;;;2.45;1.50;;;;;;;2.96;70.61;90930.06;5019195;28;20048;-51
2024/01/01 00:34:51;;;;;;;4.10;1.70;;;;;;;2.93;70.46;90930.75;5013535;28;20026;-51
2024/01/01 00:37:16;;;;;;;4.53;1.90;;;;;;;2.94;70.58;90934.88;5008073;28;20507;-51
2024/01/01 00:39:42;;;;;;;3.50;1.90;;;;;;;2.92;70.79;90934.47;5028357;28;20586;-51
2024/01/01 00:42:08;;;;;;;5.30;1.80;;;;;;;2.92;70.95;90934.47;5032676;28;20490;-51
2024/01/01 00:44:33;;;;;;;3.15;1.60;;;;;;;2.94;70.64;90932.25;5021575;28;20037;-51
2024/01/01 00:46:59;;;;;;;2.63;1.48;;;;;;;2.94;71.04;90935.63;5023714;28;20076;-51
2024/01/01 00:49:24;;;;;;;3.47;1.77;;;;;;;3.00;70.74;90941.34;5024489;28;20048;-52
2024/01/01 00:51:50;;;;;;;3.13;1.58;;;;;;;3.01;70.80;90937.66;5032398;28;20033;-51
2024/01/01 00:54:16;;;;;;;3.13;1.60;;;;;;;3.00;70.41;90940.59;5021510;28;20088;-52
2024/01/01 00:56:42;;;;;;;2.83;1.17;;;;;;;3.01;70.54;90936.88;5022771;28;20045;-51
2024/01/01 00:59:07;;;;;;;2.28;1.10;;;;;;;2.99;70.88;90937.25;5032349;28;20041;-51
2024/01/01 01:01:33;;;;;;;2.20;1.02;;;;;;;2.94;70.81;90933.00;5030936;28;20537;-51
2024/01/01 01:03:58;;;;;;;2.42;1.25;;;;;;;2.96;70.53;90927.47;5021314;28;20033;-51
2024/01/01 01:06:24;;;;;;;3.17;0.93;;;;;;;2.91;70.71;90930.31;5024706;28;20048;-51
2024/01/01 01:08:49;;;;;;;1.80;0.88;;;;;;;2.82;70.78;90922.66;5020460;28;20030;-52
2024/01/01 01:11:15;;;;;;;2.53;0.90;;;;;;;2.78;71.08;90918.44;5025400;28;20652;-51
2024/01/01 01:13:40;;;;;;;1.42;0.60;;;;;;;2.72;70.92;90925.78;5014097;28;20053;-51
2024/01/01 01:16:06;;;;;;;2.55;0.70;;;;;;;2.70;71.06;90933.94;5022842;28;20029;-52
2024/01/01 01:18:32;;;;;;;1.77;0.75;;;;;;;2.65;71.44;90926.34;5024405;28;20504;-51
2024/01/01 01:20:57;;;;;;;1.40;0.60;;;;;;;2.64;70.84;90940.50;5031156;28;20702;-51
2024/01/01 01:23:23;;;;;;;2.38;0.60;;;;;;;2.63;71.00;90944.19;5022765;28;20040;-51
2024/01/01 01:25:49;;;;;;;2.05;0.82;;;;;;;2.60;70.31;90933.69;5029245;28;20569;-51
2024/01/01 01:28:22;;;;;;;1.65;0.60;;;;;;;2.55;70.08;90937.28;5030533;28;20038;-52
2024/01/01 01:30:47;;;;;;;1.42;0.73;;;;;;;2.54;70.09;90946.22;5030635;28;20458;-51
2024/01/01 01:33:13;;;;;;;1.17;0.60;;;;;;;2.55;70.15;90960.78;5018028;28;20112;-51
2024/01/01 01:35:38;;;;;;;1.52;0.68;;;;;;;2.52;70.14;90966.66;5019545;28;20449;-52
2024/01/01 01:38:04;;;;;;;1.67;0.63;;;;;;;2.48;70.58;90965.81;5022990;28;20564;-51
2024/01/01 01:40:29;;;;;;;1.50;0.50;;;;;;;2.46;70.32;90962.78;5031531;28;20055;-51
2024/01/01 01:42:55;;;;;;;0.95;0.50;;;;;;;2.45;69.60;90963.88;5018919;28;20100;-51
2024/01/01 01:45:22;;;;;;;1.45;0.52;;;;;;;2.45;70.05;90976.94;5024743;28;20036;-51
2024/01/01 01:47:48;;;;;;;1.08;0.50;;;;;;;2.46;69.58;90966.13;5029894;28;20036;-52
2024/01/01 01:50:15;;;;;;;1.55;0.45;;;;;;;2.48;69.35;90971.78;5031320;28;20060;-51
2024/01/01 01:52:42;;;;;;;0.95;0.50;;;;;;;2.46;69.02;90968.00;5028035;28;20034;-51
2024/01/01 01:55:08;;;;;;;0.90;0.32;;;;;;;2.44;69.04;90973.56;5024123;28;20057;-51
2024/01/01 01:57:36;;;;;;;2.25;0.40;;;;;;;2.45;69.14;90972.47;5013241;28;20048;-51
2024/01/01 02:00:04;;;;;;;0.60;0.30;;;;;;;2.42;69.41;90970.50;5025949;28;20038;-51
2024/01/01 02:02:37;;;;;;;0.93;0.38;;;;;;;2.41;69.66;90969.00;5011011;28;20057;-51
2024/01/01 02:05:06;;;;;;;0.80;0.50;;;;;;;2.44;68.52;90975.41;5011669;28;20529;-51
2024/01/01 02:07:32;;;;;;;1.75;0.50;;;;;;;2.48;67.99;90974.41;5030868;28;20087;-51
2024/01/01 02:09:58;;;;;;;1.63;0.65;;;;;;;2.50;67.61;90961.03;5013988;28;20037;-51
2024/01/01 02:12:23;;;;;;;0.65;0.40;;;;;;;2.48;67.88;90969.19;5029597;28;20048;-51
2024/01/01 02:14:49;;;;;;;0.80;0.40;;;;;;;2.45;67.95;90958.66;5019829;28;20116;-51
2024/01/01 02:17:16;;;;;;;0.98;0.30;;;;;;;2.41;67.40;90968.25;5021452;28;20037;-51
2024/01/01 02:19:41;;;;;;;2.28;0.60;;;;;;;2.37;67.61;90965.53;5029168;28;20394;-51
2024/01/01 02:22:07;;;;;;;0.80;0.43;;;;;;;2.33;68.00;90964.69;5022266;28;20025;-51
2024/01/01 02:24:33;;;;;;;0.88;0.45;;;;;;;2.32;68.48;90973.59;5012071;28;20041;-49
2024/01/01 02:26:58;;;;;;;3.50;1.52;;;;;;;2.40;69.05;90959.63;5029988;28;20037;-55
2024/01/01 02:29:24;;;;;;;2.08;0.77;;;;;;;2.67;66.94;90962.56;5021245;28;20029;-51
2024/01/01 02:31:49;;;;;;;1.67;0.52;;;;;;;2.61;66.82;90956.81;5017755;28;20385;-51
2024/01/01 02:34:17;;;;;;;0.70;0.40;;;;;;;2.61;66.88;90953.47;5020273;28;20037;-51
2024/01/01 02:36:43;;;;;;;1.10;0.40;;;;;;;2.57;66.43;90957.84;5021050;28;20036;-51
2024/01/01 02:39:11;;;;;;;3.20;0.40;;;;;;;2.55;66.27;90950.31;5011037;28;20022;-51
2024/01/01 02:41:37;;;;;;;2.55;0.50;;;;;;;2.52;65.79;90948.38;5019134;28;20121;-51
2024/01/01 02:44:04;;;;;;;1.60;0.40;;;;;;;2.44;66.31;90952.69;5011930;28;20471;-51
2024/01/01 02:46:29;;;;;;;1.60;0.28;;;;;;;2.39;66.02;90947.69;5010767;28;20034;-51
2024/01/01 02:48:55;;;;;;;1.92;0.40;;;;;;;2.42;66.34;90951.50;5010904;28;20388;-51
2024/01/01 02:51:21;;;;;;;0.50;0.30;;;;;;;2.47;65.95;90938.97;5024767;28;20506;-51
2024/01/01 02:53:46;;;;;;;3.85;0.35;;;;;;;2.52;65.46;90940.56;5019087;28;20034;-51
2024/01/01 02:56:16;;;;;;;2.17;0.50;;;;;;;2.56;65.21;90943.25;5015044;28;20544;-51
2024/01/01 02:58:42;;;;;;;0.70;0.30;;;;;;;2.56;65.21;90936.19;5013350;28;20108;-51
2024/01/01 03:01:08;;;;;;;0.30;0.17;;;;;;;2.60;65.42;90951.94;5029315;28;20032;-51
2024/01/01 03:03:33;;;;;;;0.43;0.20;;;;;;;2.62;65.92;90945.31;5021174;28;20109;-51
2024/01/01 03:05:59;;;;;;;0.82;0.30;;;;;;;2.65;65.12;90954.31;5020031;28;20040;-51
2024/01/01 03:08:24;;;;;;;1.23;0.40;;;;;;;2.69;65.37;90952.56;5016554;28;20030;-50
2024/01/01 03:10:50;;;;;;;2.53;0.68;;;;;;;2.75;64.10;90946.75;5027455;28;20033;-51
2024/01/01 03:13:16;;;;;;;0.63;0.30;;;;;;;2.81;63.56;90933.44;5026452;28;20124;-51
2024/01/01 03:15:41;;;;;;;0.30;0.20;;;;;;;2.88;63.00;90925.78;5022395;28;20032;-51
2024/01/01 03:18:10;;;;;;;0.90;0.30;;;;;;;2.88;63.15;90921.31;5008504;28;20029;-51
2024/01/01 03:20:35;;;;;;;1.35;0.40;;;;;;;2.92;63.64;90930.00;5026127;28;20049;-51
2024/01/01 03:23:00;;;;;;;0.30;0.20;;;;;;;2.93;63.29;90923.66;5029491;28;20069;-51
2024/01/01 03:25:26;;;;;;;1.13;0.43;;;;;;;2.99;63.04;90929.41;5019976;28;20390;-51
2024/01/01 03:27:52;;;;;;;0.65;0.32;;;;;;;2.95;63.22;90929.31;5032611;28;20021;-52
2024/01/01 03:30:19;;;;;;;0.13;0.10;;;;;;;3.00;63.15;90927.53;5032654;28;20036;-51
2024/01/01 03:32:46;;;;;;;1.33;0.45;;;;;;;2.98;63.06;90920.81;5031502;28;20035;-51
2024/01/01 03:35:11;;;;;;;1.25;0.40;;;;;;;2.99;62.31;90926.78;5013869;28;20446;-51
2024/01/01 03:37:37;;;;;;;1.15;0.32;;;;;;;3.04;62.27;90921.31;5029485;28;20057;-50
2024/01/01 03:40:03;;;;;;;0.75;0.20;;;;;;;3.08;62.57;90919.53;5033750;28;20040;-51
2024/01/01 03:42:29;;;;;;;0.25;0.20;;;;;;;3.09;62.28;90923.66;5014976;28;20554;-51
2024/01/01 03:44:55;;;;;;;0.93;0.30;;;;;;;3.08;62.40;90930.00;5011669;28;20026;-51
2024/01/01 03:47:20;;;;;;;2.15;0.40;;;;;;;3.08;62.82;90931.84;5026847;28;20033;-51
2024/01/01 03:49:46;;;;;;;1.45;0.50;;;;;;;3.08;62.87;90934.47;5025227;28;20120;-51
2024/01/01 03:52:12;;;;;;;2.53;1.00;;;;;;;3.02;62.91;90927.97;5026767;28;20104;-50
2024/01/01 03:54:38;;;;;;;19.38;6.57;;;;;;;3.03;63.14;90932.09;5014706;28;20032;-51
2024/01/01 03:57:03;;;;;;;1.50;0.30;;;;;;;2.96;62.54;90927.47;5022832;28;20037;-51
2024/01/01 03:59:29;;;;;;;0.22;0.22;;;;;;;2.95;62.40;90929.31;5033559;28;20021;-51
2024/01/01 04:01:54;;;;;;;3.53;0.40;;;;;;;2.91;62.87;90928.47;5033485;28;20060;-51
2024/01/01 04:04:20;;;;;;;1.27;0.32;;;;;;;2.87;62.78;90925.03;5018694;28;20026;-51
2024/01/01 04:06:46;;;;;;;1.50;0.30;;;;;;;2.86;63.24;90922.72;5021534;28;20109;-51
2024/01/01 04:09:11;;;;;;;0.63;0.30;;;;;;;2.82;63.11;90927.88;5019608;28;20121;-51
2024/01/01 04:11:37;;;;;;;0.77;0.22;;;;;;;2.80;63.19;90917.03;5024641;28;20033;-50
2024/01/01 04:14:02;;;;;;;0.90;0.22;;;;;;;2.71;63.30;90929.50;5020548;28;20053;-51
2024/01/01 04:16:28;;;;;;;0.43;0.30;;;;;;;2.70;63.76;90928.69;5018791;28;20059;-51
2024/01/01 04:18:54;;;;;;;1.23;0.50;;;;;;;2.72;63.79;90939.59;5024793;28;20028;-51
2024/01/01 04:21:19;;;;;;;1.50;0.60;;;;;;;2.76;64.39;90939.66;5024994;28;20061;-51
2024/01/01 04:23:45;;;;;;;2.45;0.50;;;;;;;2.76;65.28;90937.06;5016007;28;20032;-51
2024/01/01 04:26:10;;;;;;;0.43;0.25;;;;;;;2.77;65.88;90945.63;5016322;28;20104;-51
2024/01/01 04:28:36;;;;;;;1.45;0.50;;;;;;;2.68;68.03;90951.03;5015311;28;20029;-51
2024/01/01 04:31:01;;;;;;;1.02;0.40;;;;;;;2.56;69.89;90943.25;5022968;28;20034;-51
2024/01/01 04:33:27;;;;;;;3.33;0.40;;;;;;;2.42;71.49;90943.66;5025567;28;20030;-51
2024/01/01 04:35:52;;;;;;;2.72;0.50;;;;;;;2.34;72.17;90952.38;5013135;28;20037;-50
2024/01/01 04:38:18;;;;;;;1.83;0.40;;;;;;;2.19;73.94;90949.41;5032831;28;20022;-51
2024/01/01 04:40:43;;;;;;;2.10;0.82;;;;;;;2.04;74.90;90948.25;5032750;28;20116;-51
2024/01/01 04:43:09;;;;;;;2.38;0.50;;;;;;;1.95;75.15;90955.44;5027957;28;20236;-51
2024/01/01 04:45:37;;;;;;;1.70;0.57;;;;;;;1.91;75.08;90953.84;5012478;28;20112;-51
2024/01/01 04:48:05;;;;;;;2.38;0.60;;;;;;;1.81;74.94;90960.28;5030766;28;20033;-50
2024/01/01 04:50:31;;;;;;;1.40;0.60;;;;;;;1.71;75.33;90965.94;5032588;28;20039;-50
2024/01/01 04:52:57;;;;;;;1.50;0.60;;;;;;;1.67;75.79;90963.25;5011344;28;20045;-50
2024/01/01 04:55:22;;;;;;;3.60;0.70;;;;;;;1.69;75.37;90968.13;5012558;28;20104;-51
2024/01/01 04:57:48;;;;;;;1.15;0.55;;;;;;;1.69;75.30;90970.75;5028515;28;20041;-51
2024/01/01 05:00:14;;;;;;;1.50;0.55;;;;;;;1.69;75.73;90976.72;5032510;28;20506;-51
2024/01/01 05:02:40;;;;;;;1.70;0.77;;;;;;;1.69;75.80;90974.09;5025779;28;20033;-51
2024/01/01 05:05:08;;;;;;;2.63;0.80;;;;;;;1.70;75.89;90983.44;5012210;28;20041;-51
2024/01/01 05:07:37;;;;;;;2.83;0.70;;;;;;;1.65;76.15;90975.06;5026202;28;20031;-51
2024/01/01 05:10:03;;;;;;;4.05;0.85;;;;;;;1.64;76.72;90987.34;5032038;28;20025;-51
2024/01/01 05:12:29;;;;;;;2.58;0.80;;;;;;;1.69;76.76;91004.63;5032089;28;20057;-51
2024/01/01 05:14:55;;;;;;;3.10;0.98;;;;;;;1.72;76.84;90988.34;5011999;28;20121;-51
2024/01/01 05:17:20;;;;;;;3.33;0.90;;;;;;;1.64;77.43;91003.00;5020380;28;20034;-51
2024/01/01 05:19:46;;;;;;;1.98;0.80;;;;;;;1.56;78.21;90998.66;5012224;28;20105;-51
2024/01/01 05:22:11;;;;;;;2.45;1.02;;;;;;;1.52;79.04;91019.41;5021495;28;20037;-51
2024/01/01 05:24:37;;;;;;;1.77;0.90;;;;;;;1.42;79.51;91011.25;5016856;28;20030;-51
2024/01/01 05:27:07;;;;;;;2.67;1.08;;;;;;;1.31;80.25;91019.50;5021105;28;20021;-50
2024/01/01 05:29:33;;;;;;;1.55;0.77;;;;;;;1.24;80.25;91021.13;5031708;28;20049;-51
2024/01/01 05:31:59;;;;;;;0.98;0.43;;;;;;;1.23;80.50;91027.41;5030482;28;20033;-51
2024/01/01 05:34:25;;;;;;;2.10;0.50;;;;;;;1.22;80.45;91013.63;5016689;28;20458;-51
2024/01/01 05:36:50;;;;;;;0.85;0.40;;;;;;;1.27;79.71;91015.28;5019356;28;20442;-51
2024/01/01 05:39:16;;;;;;;1.38;0.40;;;;;;;1.29;79.37;91023.50;5023299;28;20013;-50
2024/01/01 05:41:41;;;;;;;0.57;0.30;;;;;;;1.30;78.90;91025.81;5023438;28;20040;-51
2024/01/01 05:44:07;;;;;;;1.35;0.45;;;;;;;1.36;78.35;91023.75;5013269;28;20491;-51
2024/01/01 05:46:32;;;;;;;1.80;0.60;;;;;;;1.46;77.83;91032.97;5011680;28;20037;-51
2024/01/01 05:48:58;;;;;;;1.92;0.43;;;;;;;1.53;76.72;91031.31;5020058;28;20033;-51
2024/01/01 05:51:24;;;;;;;1.00;0.30;;;;;;;1.62;76.67;91036.44;5031638;28;20029;-51
2024/01/01 05:53:50;;;;;;;1.85;0.40;;;;;;;1.67;75.47;91033.63;5022469;28;20080;-51
2024/01/01 05:56:16;;;;;;;2.35;0.57;;;;;;;1.70;75.48;91043.38;5010798;28;20026;-51
2024/01/01 05:58:41;;;;;;;2.53;0.70;;;;;;;1.73;75.01;91040.13;5017621;28;20033;-51
2024/01/01 06:01:07;;;;;;;20.38;10.60;;;;;;;1.81;75.16;91035.91;5031096;28;20033;-50
2024/01/01 06:03:32;;;;;;;11.15;6.72;;;;;;;1.92;74.91;91050.00;5024525;28;20037;-50
2024/01/01 06:05:58;;;;;;;2.25;0.63;;;;;;;1.87;73.94;91039.03;5011211;28;20018;-51
2024/01/01 06:08:23;;;;;;;1.58;0.68;;;;;;;1.82;74.34;91042.63;5012696;28;20104;-51
2024/01/01 06:10:49;;;;;;;1.27;0.40;;;;;;;1.81;74.47;91041.88;5022951;28;20083;-51
2024/01/01 06:13:15;;;;;;;0.80;0.35;;;;;;;1.77;74.66;91054.03;5018987;28;20730;-51
2024/01/01 06:15:41;;;;;;;2.10;1.05;;;;;;;1.75;73.13;91043.19;5010782;28;20029;-51
2024/01/01 06:18:06;;;;;;;3.58;1.13;;;;;;;1.80;73.11;91063.03;5022067;28;20017;-51
2024/01/01 06:20:32;;;;;;;1.13;0.40;;;;;;;1.80;72.63;91040.31;5013922;28;20426;-51
2024/01/01 06:22:57;;;;;;;0.60;0.30;;;;;;;1.83;71.85;91041.53;5017413;28;20018;-51
2024/01/01 06:25:23;;;;;;;1.30;0.50;;;;;;;1.81;71.79;91038.50;5011914;28;20032;-51
2024/01/01 06:27:50;;;;;;;1.50;0.50;;;;;;;1.80;72.36;91044.78;5019182;28;20474;-51
2024/01/01 06:30:15;;;;;;;0.98;0.30;;;;;;;1.73;72.13;91047.94;5022555;28;20033;-51
2024/01/01 06:32:41;;;;;;;0.98;0.40;;;;;;;1.72;72.27;91049.03;5017077;28;20048;-51
2024/01/01 06:35:07;;;;;;;1.33;0.32;;;;;;;1.71;71.70;91050.13;5010849;28;20033;-51
2024/01/01 06:37:33;;;;;;;2.15;0.70;;;;;;;1.71;71.37;91052.72;5010496;28;20091;-51
2024/01/01 06:39:58;;;;;;;2.47;1.20;;;;;;;1.72;71.95;91050.91;5018605;28;20031;-49
2024/01/01 06:42:24;;;;;;;82.38;37.55;;;;;;;1.77;71.71;91059.22;5013974;28;20030;-50
2024/01/01 06:44:50;;;;;;;3.28;0.90;;;;;;;1.79;71.20;91056.31;5011891;28;20029;-52
2024/01/01 06:47:15;;;;;;;5.30;0.55;;;;;;;1.77;70.89;91061.09;5016650;28;20099;-51
2024/01/01 06:49:41;;;;;;;3.33;0.60;;;;;;;1.78;70.73;91047.72;5030587;28;20025;-52
2024/01/01 06:52:07;;;;;;;1.75;0.32;;;;;;;1.82;70.86;91056.41;5032979;28;20393;-52
2024/01/01 06:54:33;;;;;;;1.50;0.50;;;;;;;1.81;71.09;91059.38;5019086;28;20033;-52
2024/01/01 06:56:58;;;;;;;2.08;0.60;;;;;;;1.82;70.55;91060.88;5013635;28;20022;-53
2024/01/01 06:59:28;;;;;;;1.70;0.63;;;;;;;1.86;69.96;91063.59;5030491;28;20026;-53
2024/01/01 07:01:53;;;;;;;3.45;0.50;;;;;;;1.87;70.22;91065.13;5025838;28;20104;-53
2024/01/01 07:04:19;;;;;;;4.25;0.50;;;;;;;1.89;69.77;91071.50;5020281;28;20133;-51
2024/01/01 07:06:45;;;;;;;4.55;0.50;;;;;;;1.88;70.13;91072.59;5019695;28;20033;-54
2024/01/01 07:09:10;;;;;;;2.25;0.35;;;;;;;1.86;70.22;91074.75;5020930;28;20057;-52
2024/01/01 07:11:36;;;;;;;1.33;0.38;;;;;;;1.85;70.16;91068.03;5033695;28;20481;-53
2024/01/01 07:14:02;;;;;;;1.67;0.43;;;;;;;1.83;70.28;91065.00;5022144;28;20115;-53
2024/01/01 07:16:28;;;;;;;0.85;0.32;;;;;;;1.83;69.39;91083.25;5013863;28;20044;-51
2024/01/01 07:18:54;;;;;;;0.88;0.35;;;;;;;1.82;69.78;91085.09;5019513;28;20033;-53
2024/01/01 07:21:20;;;;;;;29.90;11.57;;;;;;;1.88;69.69;91079.66;5025393;28;20399;-52
2024/01/01 07:23:46;;;;;;;12.63;5.38;;;;;;;1.93;69.59;91095.09;5019778;28;20042;-56
2024/01/01 07:26:11;;;;;;;1.60;0.30;;;;;;;1.91;69.51;91097.25;5013172;28;20038;-54
2024/01/01 07:28:37;;;;;;;0.88;0.38;;;;;;;1.89;69.70;91094.22;5031383;28;20025;-52
2024/01/01 07:31:02;;;;;;;0.90;0.30;;;;;;;1.91;69.90;91095.41;5017878;28;20041;-52
2024/01/01 07:33:28;;;;;;;1.52;0.32;;;;;;;1.92;70.05;91111.81;5027244;28;20037;-52
2024/01/01 07:35:54;;;;;;;0.80;0.40;;;;;;;1.93;70.38;91111.50;5008993;28;20033;-54
2024/01/01 07:38:20;;;;;;;1.42;0.43;;;;;;;1.93;70.53;91121.19;5023857;28;20048;-53
2024/01/01 07:40:45;;;;;;;1.02;0.40;;;;;;;1.93;70.40;91129.75;5022273;28;20026;-52
2024/01/01 07:43:11;;;;;;;81.80;32.08;;;;;;;1.99;70.61;91136.28;5020066;28;20041;-50
2024/01/01 07:45:37;;;;;;;4.60;1.20;;;;;;;2.13;70.00;91135.94;5012603;28;20033;-52
2024/01/01 07:48:02;;;;;;;1.83;0.50;;;;;;;2.06;70.10;91139.09;5028857;28;20033;-53
2024/01/01 07:50:28;;;;;;;2.92;0.60;;;;;;;2.01;70.21;91133.31;5023973;28;20037;-52
2024/01/01 07:52:53;;;;;;;1.90;0.50;;;;;;;2.00;70.51;91124.75;5015071;28;20117;-52
2024/01/01 07:55:20;;;;;;;1.15;0.30;;;;;;;2.01;70.32;91131.47;5021034;28;20029;-52
2024/01/01 07:57:49;;;;;;;4.30;0.50;;;;;;;2.06;70.17;91122.69;5023968;28;20044;-52
2024/01/01 08:00:15;;;;;;;1.52;0.45;;;;;;;2.10;70.11;91130.63;5024418;28;20254;-54
2024/01/01 08:02:43;;;;;;;2.08;0.30;;;;;;;2.31;69.14;91133.84;5020628;28;20024;-52
2024/01/01 08:05:08;;;;;;;1.42;0.40;;;;;;;2.51;68.73;91132.19;5019984;28;20457;-53
2024/01/01 08:07:34;;;;;;;2.95;0.40;;;;;;;3.22;67.10;91136.00;5008111;28;20121;-53
2024/01/01 08:09:59;;;;;;;1.98;0.40;;;;;;;4.14;63.71;91131.50;5027478;28;20014;-54
2024/01/01 08:12:26;;;;;;;1.75;0.60;;;;;;;4.96;60.45;91135.09;5031391;28;20125;-55
2024/01/01 08:14:51;;;;;;;6.50;2.50;;;;;;;5.68;59.12;91145.78;5020504;28;20057;-53
2024/01/01 08:17:17;;;;;;;13.45;6.10;;;;;;;6.51;56.29;91140.03;5024202;28;20116;-52
2024/01/01 08:19:42;;;;;;;3.10;1.73;;;;;;;7.19;54.17;91145.38;5028253;28;20068;-52
2024/01/01 08:22:08;;;;;;;2.83;0.70;;;;;;;8.15;51.58;91141.13;5019551;28;20025;-53
2024/01/01 08:24:33;;;;;;;2.35;1.00;;;;;;;8.72;49.80;91137.41;5019971;28;20031;-55
2024/01/01 08:26:59;;;;;;;5.60;2.22;;;;;;;8.55;48.76;91139.56;5017208;28;20025;-53
2024/01/01 08:29:24;;;;;;;2.10;0.82;;;;;;;7.68;50.54;91144.44;5017966;28;20030;-53
2024/01/01 08:31:50;;;;;;;1.55;0.55;;;;;;;6.93;52.43;91154.09;5026525;28;20099;-53
2024/01/01 08:34:15;;;;;;;5.38;1.90;;;;;;;6.28;54.36;91162.94;5014262;28;20561;-53
2024/01/01 08:36:41;;;;;;;2.65;0.80;;;;;;;5.53;57.17;91157.16;5021441;28;20064;-51
2024/01/01 08:39:09;;;;;;;1.77;0.40;;;;;;;4.71;60.81;91164.16;5024753;28;20030;-52
2024/01/01 08:41:44;;;;;;;30.65;14.25;;;;;;;4.39;62.71;91181.78;5004043;28;20026;-50
2024/01/01 08:44:09;;;;;;;10.10;4.60;;;;;;;4.10;64.50;91177.78;5002068;28;20030;-51
2024/01/01 08:46:35;;;;;;;3.10;0.80;;;;;;;3.84;66.14;91179.00;5001250;28;20029;-52
2024/01/01 08:49:01;;;;;;;4.97;0.65;;;;;;;3.56;66.79;91175.69;5010495;28;20034;-53
2024/01/01 08:51:26;;;;;;;2.47;1.00;;;;;;;3.46;67.71;91176.97;5013775;28;20390;-54
2024/01/01 08:53:52;;;;;;;9.38;2.53;;;;;;;3.30;69.05;91179.50;5018255;28;20065;-52
2024/01/01 08:56:17;;;;;;;10.18;3.30;;;;;;;3.89;69.16;91160.47;5012811;28;20030;-53
2024/01/01 08:58:43;;;;;;;3.00;1.42;;;;;;;5.17;66.26;91174.81;5016053;28;20598;-52
2024/01/01 09:01:08;;;;;;;4.95;1.23;;;;;;;6.56;61.31;91163.38;5019921;28;20124;-53
2024/01/01 09:03:34;;;;;;;2.38;0.90;;;;;;;7.35;57.55;91164.38;5020971;28;20140;-52
2024/01/01 09:06:00;;;;;;;2.03;0.82;;;;;;;7.00;57.12;91170.72;5022181;28;20034;-52
2024/01/01 09:08:25;;;;;;;4.22;1.30;;;;;;;6.35;58.29;91170.94;5020784;28;20039;-53
2024/01/01 09:10:51;;;;;;;5.18;1.20;;;;;;;6.02;58.91;91169.66;5022356;28;20037;-52
2024/01/01 09:13:16;;;;;;;7.05;1.98;;;;;;;5.86;60.11;91174.22;5018456;28;20410;-52
2024/01/01 09:15:42;;;;;;;4.20;1.70;;;;;;;5.78;59.86;91169.97;5018622;28;20025;-51
2024/01/01 09:18:08;;;;;;;1.88;0.60;;;;;;;6.04;58.82;91154.31;5016348;28;20033;-53
2024/01/01 09:20:34;;;;;;;2.30;0.77;;;;;;;6.29;57.77;91154.72;5014169;28;20022;-54
2024/01/01 09:22:59;;;;;;;3.45;1.45;;;;;;;6.50;57.11;91169.25;5017471;28;20430;-54
2024/01/01 09:25:25;;;;;;;10.93;3.22;;;;;;;6.64;55.66;91175.47;5016002;28;20033;-54
2024/01/01 09:27:53;;;;;;;3.78;1.25;;;;;;;6.55;55.47;91169.72;5024345;28;20030;-53
2024/01/01 09:30:18;;;;;;;3.33;1.20;;;;;;;6.37;55.45;91169.44;5015030;28;20370;-53
2024/01/01 09:32:44;;;;;;;3.60;1.52;;;;;;;6.02;54.74;91163.63;5020580;28;20108;-54
2024/01/01 09:35:09;;;;;;;6.93;3.50;;;;;;;6.47;55.38;91177.84;5012986;28;20029;-52
2024/01/01 09:37:37;;;;;;;5.82;2.20;;;;;;;6.87;53.08;91162.28;5028678;28;20088;-53
2024/01/01 09:40:03;;;;;;;7.60;3.50;;;;;;;7.24;53.81;91168.75;5011355;28;20115;-54
2024/01/01 09:42:29;;;;;;;11.57;5.50;;;;;;;7.48;51.74;91162.25;5027846;28;20072;-53
2024/01/01 09:44:54;;;;;;;5.13;1.33;;;;;;;7.56;50.05;91148.84;5011931;28;20459;-54
2024/01/01 09:47:20;;;;;;;2.15;0.85;;;;;;;7.56;50.71;91156.72;5018232;28;20037;-55
2024/01/01 09:49:45;;;;;;;9.35;3.22;;;;;;;7.45;50.65;91155.09;5030792;28;20033;-54
2024/01/01 09:52:14;;;;;;;8.20;3.33;;;;;;;7.31;49.86;91155.69;5021739;28;20105;-54
2024/01/01 09:54:40;;;;;;;12.07;5.93;;;;;;;7.20;50.95;91152.19;5010611;28;20046;-54
2024/01/01 09:57:05;;;;;;;10.77;3.90;;;;;;;6.81;52.11;91152.44;5012791;28;20051;-54
2024/01/01 09:59:36;;;;;;;8.45;3.47;;;;;;;6.92;52.82;91155.97;5012528;28;20388;-53
2024/01/01 10:02:11;;;;;;;5.55;2.22;;;;;;;6.88;53.22;91163.03;5020907;28;20037;-53
2024/01/01 10:04:37;;;;;;;15.40;4.72;;;;;;;6.93;52.50;91168.00;5008289;28;20034;-54
2024/01/01 10:07:03;;;;;;;4.35;1.88;;;;;;;6.94;53.01;91156.34;5020073;28;20030;-53
2024/01/01 10:09:29;;;;;;;2.17;0.80;;;;;;;6.30;52.66;91169.34;5003570;28;20022;-54
2024/01/01 10:12:09;;;;;;;1.55;0.68;;;;;;;5.60;55.25;91165.16;5021508;28;20040;-52
2024/01/01 10:14:49;;;;;;;4.07;1.77;;;;;;;5.61;57.62;91173.78;5009540;28;20084;-53
2024/01/01 10:17:17;;;;;;;5.40;1.90;;;;;;;5.84;57.30;91173.81;5019436;28;20044;-54
2024/01/01 10:20:01;;;;;;;5.50;1.80;;;;;;;5.77;56.55;91163.19;5019141;28;20020;-53
2024/01/01 10:22:30;;;;;;;10.98;3.42;;;;;;;5.74;56.91;91162.78;5019866;28;20034;-52
2024/01/01 10:25:16;;;;;;;7.95;3.58;;;;;;;5.68;56.31;91155.53;5017619;28;20057;-53
2024/01/01 10:27:44;;;;;;;11.10;3.08;;;;;;;5.55;57.28;91146.31;5019877;28;20046;-54
2024/01/01 10:30:10;;;;;;;19.08;6.32;;;;;;;5.56;58.14;91145.22;5017333;28;20395;-54
2024/01/01 10:32:37;;;;;;;6.97;2.90;;;;;;;5.60;56.97;91146.81;5011572;28;20466;-54
2024/01/01 10:35:05;;;;;;;12.00;4.43;;;;;;;5.81;57.10;91129.91;5012346;28;20045;-53
2024/01/01 10:37:31;;;;;;;6.60;2.30;;;;;;;5.58;55.74;91143.75;5010660;28;20088;-52
2024/01/01 10:40:04;;;;;;;7.03;2.20;;;;;;;5.49;56.21;91146.59;5001518;28;20097;-53
2024/01/01 10:42:33;;;;;;;10.65;3.88;;;;;;;5.61;56.57;91150.19;5010287;28;20038;-53
2024/01/01 10:45:03;;;;;;;26.23;11.55;;;;;;;5.61;56.05;91137.81;5019678;28;20099;-52
2024/01/01 10:47:29;;;;;;;7.07;2.15;;;;;;;5.54;55.17;91153.44;5012215;28;20383;-53
2024/01/01 10:50:04;;;;;;;4.35;1.33;;;;;;;5.47;55.06;91151.41;5021873;28;20033;-54
2024/01/01 10:52:49;;;;;;;3.53;1.10;;;;;;;5.12;55.86;91151.53;5012706;28;20038;-52
2024/01/01 10:55:32;;;;;;;3.00;0.95;;;;;;;4.87;57.48;91155.50;5015466;28;20065;-53
2024/01/01 10:58:32;;;;;;;3.10;1.20;;;;;;;4.70;60.33;91178.38;5011392;28;20406;-54
2024/01/01 11:01:13;;;;;;;2.85;0.93;;;;;;;4.48;62.93;91174.53;5003285;28;20045;-54
2024/01/01 11:03:39;;;;;;;4.75;1.00;;;;;;;4.31;63.70;91174.91;5018136;28;20030;-54
2024/01/01 11:06:21;;;;;;;3.35;0.80;;;;;;;4.01;63.63;91164.09;5011240;28;20084;-54
2024/01/01 11:08:47;;;;;;;1.77;0.52;;;;;;;3.98;64.32;91173.38;5021206;28;20075;-55
2024/01/01 11:11:32;;;;;;;2.15;0.60;;;;;;;4.12;65.48;91162.47;5023662;28;20034;-54
2024/01/01 11:13:58;;;;;;;1.85;0.40;;;;;;;4.33;64.11;91164.81;5017681;28;20114;-55
2024/01/01 11:16:24;;;;;;;3.92;0.60;;;;;;;4.61;63.70;91166.56;5012736;28;20084;-52
2024/01/01 11:18:51;;;;;;;3.10;0.40;;;;;;;4.76;61.97;91148.19;5021706;28;20034;-53
2024/01/01 11:21:26;;;;;;;1.88;0.30;;;;;;;4.79;62.21;91162.47;5015820;28;20076;-53
2024/01/01 11:23:52;;;;;;;1.92;0.52;;;;;;;4.88;60.82;91154.41;5018276;28;20535;-53
2024/01/01 11:26:26;;;;;;;2.50;0.50;;;;;;;5.04;60.03;91155.84;5011587;28;20117;-52
2024/01/01 11:28:56;;;;;;;2.40;0.30;;;;;;;5.17;60.65;91159.09;5012688;28;20033;-53
2024/01/01 11:31:23;;;;;;;1.95;0.50;;;;;;;5.33;58.88;91164.28;5010984;28;20081;-53
2024/01/01 11:34:01;;;;;;;1.08;0.43;;;;;;;5.39;58.31;91170.78;5028441;28;20034;-52
2024/01/01 11:36:28;;;;;;;4.30;0.40;;;;;;;5.52;57.94;91163.50;5015074;28;20392;-52
2024/01/01 11:38:54;;;;;;;1.65;0.30;;;;;;;5.61;57.55;91168.53;5017136;28;20095;-52